sensor_id;sensor_type;location;lat;lon;timestamp;temperature;humidity
18047;DHT22;9148;51.454;13.862;2023-04-03T00:00:04;2.70;99.90
18047;DHT22;9148;51.454;13.862;2023-04-03T00:02:32;2.60;99.90
18047;DHT22;9148;51.454;13.862;2023-04-03T00:04:58;2.60;99.90
18047;DHT22;9148;51.454;13.862;2023-04-03T00:07:23;2.60;99.90
18047;DHT22;9148;51.454;13.862;2023-04-03T00:09:49;2.50;99.90
18047;DHT22;9148;51.454;13.862;2023-04-03T00:12:14;2.40;99.90
18047;DHT22;9148;51.454;13.862;2023-04-03T00:14:40;2.40;99.90
18047;DHT22;9148;51.454;13.862;2023-04-03T00:17:06;2.30;99.90
18047;DHT22;9148;51.454;13.862;2023-04-03T00:19:32;2.20;99.90
18047;DHT22;9148;51.454;13.862;2023-04-03T00:21:57;2.20;99.90
18047;DHT22;9148;51.454;13.862;2023-04-03T00:24:23;2.00;99.90
18047;DHT22;9148;51.454;13.862;2023-04-03T00:26:49;2.20;99.90
18047;DHT22;9148;51.454;13.862;2023-04-03T00:29:14;2.00;99.90
18047;DHT22;9148;51.454;13.862;2023-04-03T00:31:40;1.90;99.90
18047;DHT22;9148;51.454;13.862;2023-04-03T00:34:06;2.70;99.90
18047;DHT22;9148;51.454;13.862;2023-04-03T00:36:31;1.90;99.90
18047;DHT22;9148;51.454;13.862;2023-04-03T00:38:57;1.80;99.90
18047;DHT22;9148;51.454;13.862;2023-04-03T00:41:23;1.80;99.90
18047;DHT22;9148;51.454;13.862;2023-04-03T00:43:48;1.90;99.90
18047;DHT22;9148;51.454;13.862;2023-04-03T00:46:14;1.70;99.90
18047;DHT22;9148;51.454;13.862;2023-04-03T00:48:47;1.70;99.90
18047;DHT22;9148;51.454;13.862;2023-04-03T00:51:18;1.60;99.90
18047;DHT22;9148;51.454;13.862;2023-04-03T00:53:50;1.60;99.90
18047;DHT22;9148;51.454;13.862;2023-04-03T00:56:22;1.60;99.90
18047;DHT22;9148;51.454;13.862;2023-04-03T00:58:58;1.50;99.90
18047;DHT22;9148;51.454;13.862;2023-04-03T01:01:28;1.50;99.90
18047;DHT22;9148;51.454;13.862;2023-04-03T01:04:01;1.50;99.90
18047;DHT22;9148;51.454;13.862;2023-04-03T01:06:30;1.30;99.90
18047;DHT22;9148;51.454;13.862;2023-04-03T01:08:59;1.40;99.90
18047;DHT22;9148;51.454;13.862;2023-04-03T01:11:26;1.30;99.90
18047;DHT22;9148;51.454;13.862;2023-04-03T01:13:52;1.20;99.90
18047;DHT22;9148;51.454;13.862;2023-04-03T01:16:18;1.20;99.90
18047;DHT22;9148;51.454;13.862;2023-04-03T01:18:44;1.20;99.90
18047;DHT22;9148;51.454;13.862;2023-04-03T01:21:49;1.10;99.90
18047;DHT22;9148;51.454;13.862;2023-04-03T01:24:33;1.00;99.90
18047;DHT22;9148;51.454;13.862;2023-04-03T01:27:01;1.00;99.90
18047;DHT22;9148;51.454;13.862;2023-04-03T01:29:28;0.90;99.90
18047;DHT22;9148;51.454;13.862;2023-04-03T01:31:56;1.00;99.90
18047;DHT22;9148;51.454;13.862;2023-04-03T01:34:23;0.80;99.90
18047;DHT22;9148;51.454;13.862;2023-04-03T01:36:49;0.90;99.90
18047;DHT22;9148;51.454;13.862;2023-04-03T01:39:16;0.80;99.90
18047;DHT22;9148;51.454;13.862;2023-04-03T01:41:42;0.70;99.90
18047;DHT22;9148;51.454;13.862;2023-04-03T01:44:08;0.60;99.90
18047;DHT22;9148;51.454;13.862;2023-04-03T01:46:33;0.70;99.90
18047;DHT22;9148;51.454;13.862;2023-04-03T01:48:59;0.60;99.90
18047;DHT22;9148;51.454;13.862;2023-04-03T01:51:25;0.50;99.90
18047;DHT22;9148;51.454;13.862;2023-04-03T01:53:50;0.40;99.90
18047;DHT22;9148;51.454;13.862;2023-04-03T01:56:17;0.30;99.90
18047;DHT22;9148;51.454;13.862;2023-04-03T01:58:42;0.50;99.90
18047;DHT22;9148;51.454;13.862;2023-04-03T02:01:08;0.40;99.90
18047;DHT22;9148;51.454;13.862;2023-04-03T02:03:34;0.40;99.90
18047;DHT22;9148;51.454;13.862;2023-04-03T02:06:00;0.20;99.90
18047;DHT22;9148;51.454;13.862;2023-04-03T02:08:25;0.20;99.90
18047;DHT22;9148;51.454;13.862;2023-04-03T02:10:51;0.20;99.90
18047;DHT22;9148;51.454;13.862;2023-04-03T02:13:17;0.00;99.90
18047;DHT22;9148;51.454;13.862;2023-04-03T02:15:43;0.10;99.90
18047;DHT22;9148;51.454;13.862;2023-04-03T02:18:09;0.00;99.90
18047;DHT22;9148;51.454;13.862;2023-04-03T02:20:35;0.00;99.90
18047;DHT22;9148;51.454;13.862;2023-04-03T02:23:01;-0.20;99.90
18047;DHT22;9148;51.454;13.862;2023-04-03T02:25:27;-0.20;99.90
18047;DHT22;9148;51.454;13.862;2023-04-03T02:27:52;-0.20;99.90
18047;DHT22;9148;51.454;13.862;2023-04-03T02:30:18;-0.20;99.90
18047;DHT22;9148;51.454;13.862;2023-04-03T02:32:44;-0.20;99.90
18047;DHT22;9148;51.454;13.862;2023-04-03T02:35:10;-0.30;99.90
18047;DHT22;9148;51.454;13.862;2023-04-03T02:37:36;-0.40;99.90
18047;DHT22;9148;51.454;13.862;2023-04-03T02:40:02;-0.40;99.90
18047;DHT22;9148;51.454;13.862;2023-04-03T02:42:29;-0.40;99.90
18047;DHT22;9148;51.454;13.862;2023-04-03T02:44:54;-0.40;99.90
18047;DHT22;9148;51.454;13.862;2023-04-03T02:47:20;-0.50;99.90
18047;DHT22;9148;51.454;13.862;2023-04-03T02:49:46;-0.40;99.90
18047;DHT22;9148;51.454;13.862;2023-04-03T02:52:13;-0.40;99.90
18047;DHT22;9148;51.454;13.862;2023-04-03T02:54:39;-0.50;99.90
18047;DHT22;9148;51.454;13.862;2023-04-03T02:57:05;0.40;99.90
18047;DHT22;9148;51.454;13.862;2023-04-03T02:59:34;-0.60;99.90
18047;DHT22;9148;51.454;13.862;2023-04-03T03:02:01;-0.70;99.90
18047;DHT22;9148;51.454;13.862;2023-04-03T03:04:26;-0.70;99.90
18047;DHT22;9148;51.454;13.862;2023-04-03T03:06:52;-0.60;99.90
18047;DHT22;9148;51.454;13.862;2023-04-03T03:09:18;-0.60;99.90
18047;DHT22;9148;51.454;13.862;2023-04-03T03:11:44;-0.80;99.90
18047;DHT22;9148;51.454;13.862;2023-04-03T03:14:10;-0.70;99.90
18047;DHT22;9148;51.454;13.862;2023-04-03T03:16:35;-0.10;99.90
18047;DHT22;9148;51.454;13.862;2023-04-03T03:19:01;-0.80;99.90
18047;DHT22;9148;51.454;13.862;2023-04-03T03:21:27;-0.90;99.90
18047;DHT22;9148;51.454;13.862;2023-04-03T03:23:53;-0.90;99.90
18047;DHT22;9148;51.454;13.862;2023-04-03T03:26:18;-0.90;99.90
18047;DHT22;9148;51.454;13.862;2023-04-03T03:28:45;-0.90;99.90
18047;DHT22;9148;51.454;13.862;2023-04-03T03:31:20;-1.00;99.90
18047;DHT22;9148;51.454;13.862;2023-04-03T03:33:46;-0.90;99.90
18047;DHT22;9148;51.454;13.862;2023-04-03T03:36:11;-0.90;99.90
18047;DHT22;9148;51.454;13.862;2023-04-03T03:38:37;-1.10;99.90
18047;DHT22;9148;51.454;13.862;2023-04-03T03:41:03;-1.10;99.90
18047;DHT22;9148;51.454;13.862;2023-04-03T03:43:28;-1.10;99.90
18047;DHT22;9148;51.454;13.862;2023-04-03T03:45:54;-1.10;99.90
18047;DHT22;9148;51.454;13.862;2023-04-03T03:48:20;-1.10;99.90
18047;DHT22;9148;51.454;13.862;2023-04-03T03:50:47;-1.20;99.90
18047;DHT22;9148;51.454;13.862;2023-04-03T03:53:13;-1.10;99.90
18047;DHT22;9148;51.454;13.862;2023-04-03T03:55:39;-1.10;99.90
18047;DHT22;9148;51.454;13.862;2023-04-03T03:58:04;-1.10;99.90
18047;DHT22;9148;51.454;13.862;2023-04-03T04:00:30;-1.10;99.90
18047;DHT22;9148;51.454;13.862;2023-04-03T04:02:56;-1.20;99.90
18047;DHT22;9148;51.454;13.862;2023-04-03T04:05:22;-1.20;99.90
18047;DHT22;9148;51.454;13.862;2023-04-03T04:07:47;-1.20;99.90
18047;DHT22;9148;51.454;13.862;2023-04-03T04:10:13;-1.20;99.90
18047;DHT22;9148;51.454;13.862;2023-04-03T04:12:39;-0.90;99.90
18047;DHT22;9148;51.454;13.862;2023-04-03T04:15:05;-1.30;99.90
18047;DHT22;9148;51.454;13.862;2023-04-03T04:17:31;-1.10;99.90
18047;DHT22;9148;51.454;13.862;2023-04-03T04:19:57;-1.20;99.90
18047;DHT22;9148;51.454;13.862;2023-04-03T04:22:23;-1.20;99.90
18047;DHT22;9148;51.454;13.862;2023-04-03T04:24:48;-1.20;99.90
18047;DHT22;9148;51.454;13.862;2023-04-03T04:27:14;-1.30;99.90
18047;DHT22;9148;51.454;13.862;2023-04-03T04:29:41;-1.30;99.90
18047;DHT22;9148;51.454;13.862;2023-04-03T04:32:06;-1.30;99.90
18047;DHT22;9148;51.454;13.862;2023-04-03T04:34:32;-1.30;99.90
18047;DHT22;9148;51.454;13.862;2023-04-03T04:36:58;-1.30;99.90
18047;DHT22;9148;51.454;13.862;2023-04-03T04:39:24;-1.30;99.90
18047;DHT22;9148;51.454;13.862;2023-04-03T04:41:49;-1.20;99.90
18047;DHT22;9148;51.454;13.862;2023-04-03T04:44:15;-1.20;99.90
18047;DHT22;9148;51.454;13.862;2023-04-03T04:46:41;-1.20;99.90
18047;DHT22;9148;51.454;13.862;2023-04-03T04:49:06;-1.20;99.90
18047;DHT22;9148;51.454;13.862;2023-04-03T04:51:32;-1.10;99.90
18047;DHT22;9148;51.454;13.862;2023-04-03T04:53:58;-1.20;99.90
18047;DHT22;9148;51.454;13.862;2023-04-03T04:56:23;-1.20;99.90
18047;DHT22;9148;51.454;13.862;2023-04-03T04:58:50;-1.10;99.90
18047;DHT22;9148;51.454;13.862;2023-04-03T05:01:16;-1.10;99.90
18047;DHT22;9148;51.454;13.862;2023-04-03T05:03:41;-1.00;99.90
18047;DHT22;9148;51.454;13.862;2023-04-03T05:06:07;-1.10;99.90
18047;DHT22;9148;51.454;13.862;2023-04-03T05:08:33;-0.90;99.90
18047;DHT22;9148;51.454;13.862;2023-04-03T05:10:59;-0.70;99.90
18047;DHT22;9148;51.454;13.862;2023-04-03T05:13:24;-0.70;99.90
18047;DHT22;9148;51.454;13.862;2023-04-03T05:15:50;-0.70;99.90
18047;DHT22;9148;51.454;13.862;2023-04-03T05:18:16;-0.50;99.90
18047;DHT22;9148;51.454;13.862;2023-04-03T05:20:41;-0.60;99.90
18047;DHT22;9148;51.454;13.862;2023-04-03T05:23:09;-0.30;99.90
18047;DHT22;9148;51.454;13.862;2023-04-03T05:25:38;-0.50;99.90
18047;DHT22;9148;51.454;13.862;2023-04-03T05:28:04;-0.10;99.90
18047;DHT22;9148;51.454;13.862;2023-04-03T05:30:29;-0.10;99.90
18047;DHT22;9148;51.454;13.862;2023-04-03T05:32:55;0.00;99.90
18047;DHT22;9148;51.454;13.862;2023-04-03T05:35:21;0.10;99.90
18047;DHT22;9148;51.454;13.862;2023-04-03T05:37:46;0.20;99.90
18047;DHT22;9148;51.454;13.862;2023-04-03T05:40:12;0.30;99.90
18047;DHT22;9148;51.454;13.862;2023-04-03T05:42:38;0.40;99.90
18047;DHT22;9148;51.454;13.862;2023-04-03T05:45:04;0.50;99.90
18047;DHT22;9148;51.454;13.862;2023-04-03T05:47:30;0.60;99.90
18047;DHT22;9148;51.454;13.862;2023-04-03T05:49:56;0.70;99.90
18047;DHT22;9148;51.454;13.862;2023-04-03T05:52:34;0.90;99.90
18047;DHT22;9148;51.454;13.862;2023-04-03T05:55:02;0.40;99.90
18047;DHT22;9148;51.454;13.862;2023-04-03T05:57:28;1.10;99.90
18047;DHT22;9148;51.454;13.862;2023-04-03T05:59:53;1.20;99.90
18047;DHT22;9148;51.454;13.862;2023-04-03T06:02:21;1.40;99.90
18047;DHT22;9148;51.454;13.862;2023-04-03T06:04:47;1.50;99.90
18047;DHT22;9148;51.454;13.862;2023-04-03T06:07:16;1.60;99.90
18047;DHT22;9148;51.454;13.862;2023-04-03T06:09:43;1.90;99.90
18047;DHT22;9148;51.454;13.862;2023-04-03T06:12:09;1.90;99.90
18047;DHT22;9148;51.454;13.862;2023-04-03T06:14:35;2.10;99.90
18047;DHT22;9148;51.454;13.862;2023-04-03T06:17:01;2.40;99.90
18047;DHT22;9148;51.454;13.862;2023-04-03T06:19:27;2.40;99.90
18047;DHT22;9148;51.454;13.862;2023-04-03T06:21:54;2.60;99.90
18047;DHT22;9148;51.454;13.862;2023-04-03T06:24:20;2.70;99.90
18047;DHT22;9148;51.454;13.862;2023-04-03T06:26:48;2.80;99.90
18047;DHT22;9148;51.454;13.862;2023-04-03T06:29:15;3.10;99.90
18047;DHT22;9148;51.454;13.862;2023-04-03T06:31:40;3.20;99.90
18047;DHT22;9148;51.454;13.862;2023-04-03T06:34:06;3.20;99.90
18047;DHT22;9148;51.454;13.862;2023-04-03T06:36:32;3.40;99.90
18047;DHT22;9148;51.454;13.862;2023-04-03T06:38:58;3.60;99.90
18047;DHT22;9148;51.454;13.862;2023-04-03T06:41:24;3.40;99.90
18047;DHT22;9148;51.454;13.862;2023-04-03T06:43:50;3.80;99.90
18047;DHT22;9148;51.454;13.862;2023-04-03T06:46:18;4.10;99.90
18047;DHT22;9148;51.454;13.862;2023-04-03T06:48:45;4.20;99.90
18047;DHT22;9148;51.454;13.862;2023-04-03T06:51:21;4.30;99.90
18047;DHT22;9148;51.454;13.862;2023-04-03T06:53:52;4.60;99.90
18047;DHT22;9148;51.454;13.862;2023-04-03T06:56:19;4.80;99.90
18047;DHT22;9148;51.454;13.862;2023-04-03T06:58:45;5.00;99.90
18047;DHT22;9148;51.454;13.862;2023-04-03T07:01:13;5.60;99.90
18047;DHT22;9148;51.454;13.862;2023-04-03T07:03:40;5.20;99.90
18047;DHT22;9148;51.454;13.862;2023-04-03T07:06:07;5.30;99.90
18047;DHT22;9148;51.454;13.862;2023-04-03T07:08:34;5.40;99.90
18047;DHT22;9148;51.454;13.862;2023-04-03T07:11:00;5.50;99.40
18047;DHT22;9148;51.454;13.862;2023-04-03T07:13:26;5.50;98.40
18047;DHT22;9148;51.454;13.862;2023-04-03T07:15:53;5.60;98.10
18047;DHT22;9148;51.454;13.862;2023-04-03T07:18:19;5.80;97.70
18047;DHT22;9148;51.454;13.862;2023-04-03T07:20:45;6.60;95.90
18047;DHT22;9148;51.454;13.862;2023-04-03T07:23:11;7.00;96.20
18047;DHT22;9148;51.454;13.862;2023-04-03T07:25:41;6.70;96.20
18047;DHT22;9148;51.454;13.862;2023-04-03T07:28:08;6.60;95.70
18047;DHT22;9148;51.454;13.862;2023-04-03T07:30:34;6.50;95.10
18047;DHT22;9148;51.454;13.862;2023-04-03T07:33:00;6.60;94.80
18047;DHT22;9148;51.454;13.862;2023-04-03T07:35:26;7.30;94.40
18047;DHT22;9148;51.454;13.862;2023-04-03T07:37:51;6.80;93.60
18047;DHT22;9148;51.454;13.862;2023-04-03T07:40:18;7.60;93.10
18047;DHT22;9148;51.454;13.862;2023-04-03T07:42:44;6.90;92.70
18047;DHT22;9148;51.454;13.862;2023-04-03T07:45:10;7.30;91.60
18047;DHT22;9148;51.454;13.862;2023-04-03T07:47:36;6.80;90.60
18047;DHT22;9148;51.454;13.862;2023-04-03T07:50:01;6.60;89.80
18047;DHT22;9148;51.454;13.862;2023-04-03T07:52:27;6.80;90.60
18047;DHT22;9148;51.454;13.862;2023-04-03T07:54:53;6.70;91.00
18047;DHT22;9148;51.454;13.862;2023-04-03T07:57:18;7.50;91.40
18047;DHT22;9148;51.454;13.862;2023-04-03T07:59:44;7.80;91.50
18047;DHT22;9148;51.454;13.862;2023-04-03T08:02:11;7.70;90.90
18047;DHT22;9148;51.454;13.862;2023-04-03T08:04:36;7.50;86.20
18047;DHT22;9148;51.454;13.862;2023-04-03T08:07:02;7.30;85.60
18047;DHT22;9148;51.454;13.862;2023-04-03T08:09:28;7.30;87.30
18047;DHT22;9148;51.454;13.862;2023-04-03T08:11:53;8.10;89.50
18047;DHT22;9148;51.454;13.862;2023-04-03T08:14:20;7.80;89.70
18047;DHT22;9148;51.454;13.862;2023-04-03T08:16:47;8.10;86.80
18047;DHT22;9148;51.454;13.862;2023-04-03T08:19:14;8.30;83.70
18047;DHT22;9148;51.454;13.862;2023-04-03T08:21:41;8.40;83.70
18047;DHT22;9148;51.454;13.862;2023-04-03T08:24:08;8.60;84.70
18047;DHT22;9148;51.454;13.862;2023-04-03T08:26:34;8.90;84.80
18047;DHT22;9148;51.454;13.862;2023-04-03T08:29:00;9.30;83.40
18047;DHT22;9148;51.454;13.862;2023-04-03T08:31:26;9.60;82.70
18047;DHT22;9148;51.454;13.862;2023-04-03T08:33:53;10.00;81.40
18047;DHT22;9148;51.454;13.862;2023-04-03T08:36:23;10.20;80.50
18047;DHT22;9148;51.454;13.862;2023-04-03T08:38:52;10.60;78.00
18047;DHT22;9148;51.454;13.862;2023-04-03T08:41:39;10.80;74.60
18047;DHT22;9148;51.454;13.862;2023-04-03T08:44:18;10.90;74.20
18047;DHT22;9148;51.454;13.862;2023-04-03T08:49:42;10.90;72.30
18047;DHT22;9148;51.454;13.862;2023-04-03T08:52:18;10.60;71.10
18047;DHT22;9148;51.454;13.862;2023-04-03T08:55:05;10.40;71.60
18047;DHT22;9148;51.454;13.862;2023-04-03T08:57:41;10.50;68.00
18047;DHT22;9148;51.454;13.862;2023-04-03T09:00:23;10.40;66.00
18047;DHT22;9148;51.454;13.862;2023-04-03T09:02:51;10.30;62.00
18047;DHT22;9148;51.454;13.862;2023-04-03T09:05:24;10.00;59.50
18047;DHT22;9148;51.454;13.862;2023-04-03T09:08:22;9.80;59.30
18047;DHT22;9148;51.454;13.862;2023-04-03T09:14:13;9.60;62.80
18047;DHT22;9148;51.454;13.862;2023-04-03T09:17:03;9.50;62.60
18047;DHT22;9148;51.454;13.862;2023-04-03T09:19:36;9.00;62.80
18047;DHT22;9148;51.454;13.862;2023-04-03T09:22:20;9.70;63.50
18047;DHT22;9148;51.454;13.862;2023-04-03T09:25:15;9.90;61.50
18047;DHT22;9148;51.454;13.862;2023-04-03T09:27:39;10.50;61.20
18047;DHT22;9148;51.454;13.862;2023-04-03T09:30:06;10.00;60.50
18047;DHT22;9148;51.454;13.862;2023-04-03T09:32:38;10.00;60.10
18047;DHT22;9148;51.454;13.862;2023-04-03T09:37:45;9.90;60.10
18047;DHT22;9148;51.454;13.862;2023-04-03T09:40:32;9.90;59.00
18047;DHT22;9148;51.454;13.862;2023-04-03T09:43:21;9.80;58.90
18047;DHT22;9148;51.454;13.862;2023-04-03T09:45:52;9.60;59.10
18047;DHT22;9148;51.454;13.862;2023-04-03T09:48:22;9.20;57.30
18047;DHT22;9148;51.454;13.862;2023-04-03T09:53:42;9.20;59.30
18047;DHT22;9148;51.454;13.862;2023-04-03T10:01:33;10.10;56.60
18047;DHT22;9148;51.454;13.862;2023-04-03T10:06:37;10.20;56.50
18047;DHT22;9148;51.454;13.862;2023-04-03T10:09:19;10.30;56.70
18047;DHT22;9148;51.454;13.862;2023-04-03T10:14:37;10.40;57.30
18047;DHT22;9148;51.454;13.862;2023-04-03T10:26:45;9.70;56.70
18047;DHT22;9148;51.454;13.862;2023-04-03T10:32:45;9.10;56.70
18047;DHT22;9148;51.454;13.862;2023-04-03T10:38:33;8.80;57.10
18047;DHT22;9148;51.454;13.862;2023-04-03T10:41:17;8.80;57.40
18047;DHT22;9148;51.454;13.862;2023-04-03T10:44:05;8.60;57.60
18047;DHT22;9148;51.454;13.862;2023-04-03T10:46:38;8.60;57.80
18047;DHT22;9148;51.454;13.862;2023-04-03T10:49:14;8.80;58.00
18047;DHT22;9148;51.454;13.862;2023-04-03T10:52:29;8.60;58.00
18047;DHT22;9148;51.454;13.862;2023-04-03T10:55:09;8.60;58.30
18047;DHT22;9148;51.454;13.862;2023-04-03T10:57:46;8.60;58.10
18047;DHT22;9148;51.454;13.862;2023-04-03T11:00:20;8.40;57.70
18047;DHT22;9148;51.454;13.862;2023-04-03T11:02:52;8.40;57.60
18047;DHT22;9148;51.454;13.862;2023-04-03T11:05:40;8.20;57.80
18047;DHT22;9148;51.454;13.862;2023-04-03T11:08:33;8.20;57.90
18047;DHT22;9148;51.454;13.862;2023-04-03T11:11:07;8.10;58.10
18047;DHT22;9148;51.454;13.862;2023-04-03T11:13:55;8.10;58.10
18047;DHT22;9148;51.454;13.862;2023-04-03T11:16:31;8.20;57.20
18047;DHT22;9148;51.454;13.862;2023-04-03T11:19:04;8.10;57.90
18047;DHT22;9148;51.454;13.862;2023-04-03T11:21:44;8.20;58.30
18047;DHT22;9148;51.454;13.862;2023-04-03T11:24:24;8.30;58.80
18047;DHT22;9148;51.454;13.862;2023-04-03T11:26:53;8.40;58.20
18047;DHT22;9148;51.454;13.862;2023-04-03T11:29:23;8.40;57.60
18047;DHT22;9148;51.454;13.862;2023-04-03T11:32:26;8.60;57.60
18047;DHT22;9148;51.454;13.862;2023-04-03T11:35:05;7.80;57.60
18047;DHT22;9148;51.454;13.862;2023-04-03T11:37:39;8.40;56.80
18047;DHT22;9148;51.454;13.862;2023-04-03T11:40:31;8.30;57.20
18047;DHT22;9148;51.454;13.862;2023-04-03T11:50:42;8.50;56.30
18047;DHT22;9148;51.454;13.862;2023-04-03T11:58:22;8.30;57.20
18047;DHT22;9148;51.454;13.862;2023-04-03T12:01:11;8.20;57.50
18047;DHT22;9148;51.454;13.862;2023-04-03T12:16:25;8.50;57.00
18047;DHT22;9148;51.454;13.862;2023-04-03T12:19:36;8.50;56.20
18047;DHT22;9148;51.454;13.862;2023-04-03T12:22:08;8.40;57.00
18047;DHT22;9148;51.454;13.862;2023-04-03T12:24:38;8.30;57.00
18047;DHT22;9148;51.454;13.862;2023-04-03T12:27:26;8.20;57.00
18047;DHT22;9148;51.454;13.862;2023-04-03T12:36:06;7.80;57.10
18047;DHT22;9148;51.454;13.862;2023-04-03T12:45:19;8.20;56.80
18047;DHT22;9148;51.454;13.862;2023-04-03T12:47:49;8.40;57.10
18047;DHT22;9148;51.454;13.862;2023-04-03T12:50:30;8.40;56.80
18047;DHT22;9148;51.454;13.862;2023-04-03T12:53:02;8.30;56.70
18047;DHT22;9148;51.454;13.862;2023-04-03T12:55:30;8.20;56.70
18047;DHT22;9148;51.454;13.862;2023-04-03T12:57:56;8.10;56.70
18047;DHT22;9148;51.454;13.862;2023-04-03T13:02:58;7.80;57.30
18047;DHT22;9148;51.454;13.862;2023-04-03T13:05:24;8.10;57.40
18047;DHT22;9148;51.454;13.862;2023-04-03T13:07:58;7.70;57.70
18047;DHT22;9148;51.454;13.862;2023-04-03T13:10:27;7.50;57.10
18047;DHT22;9148;51.454;13.862;2023-04-03T13:12:55;7.50;57.70
18047;DHT22;9148;51.454;13.862;2023-04-03T13:15:25;7.40;57.40
18047;DHT22;9148;51.454;13.862;2023-04-03T13:17:53;7.30;57.60
18047;DHT22;9148;51.454;13.862;2023-04-03T13:20:29;7.30;57.90
18047;DHT22;9148;51.454;13.862;2023-04-03T13:23:10;7.30;57.70
18047;DHT22;9148;51.454;13.862;2023-04-03T13:25:41;7.20;57.50
18047;DHT22;9148;51.454;13.862;2023-04-03T13:28:26;7.20;57.60
18047;DHT22;9148;51.454;13.862;2023-04-03T13:33:54;7.20;57.50
18047;DHT22;9148;51.454;13.862;2023-04-03T13:36:31;7.20;57.40
18047;DHT22;9148;51.454;13.862;2023-04-03T13:41:42;7.20;57.10
18047;DHT22;9148;51.454;13.862;2023-04-03T13:46:52;7.20;56.90
18047;DHT22;9148;51.454;13.862;2023-04-03T13:49:21;7.20;56.70
18047;DHT22;9148;51.454;13.862;2023-04-03T13:51:56;7.20;57.00
18047;DHT22;9148;51.454;13.862;2023-04-03T13:54:28;7.70;57.60
18047;DHT22;9148;51.454;13.862;2023-04-03T13:56:58;7.20;57.40
18047;DHT22;9148;51.454;13.862;2023-04-03T13:59:32;7.40;57.60
18047;DHT22;9148;51.454;13.862;2023-04-03T14:04:49;7.40;58.00
18047;DHT22;9148;51.454;13.862;2023-04-03T14:07:18;7.30;57.70
18047;DHT22;9148;51.454;13.862;2023-04-03T14:09:45;7.30;57.40
18047;DHT22;9148;51.454;13.862;2023-04-03T14:14:56;7.10;57.30
18047;DHT22;9148;51.454;13.862;2023-04-03T14:17:24;7.50;57.50
18047;DHT22;9148;51.454;13.862;2023-04-03T14:19:53;6.90;57.20
18047;DHT22;9148;51.454;13.862;2023-04-03T14:22:25;7.00;57.60
18047;DHT22;9148;51.454;13.862;2023-04-03T14:24:54;6.90;57.60
18047;DHT22;9148;51.454;13.862;2023-04-03T14:27:24;6.90;57.70
18047;DHT22;9148;51.454;13.862;2023-04-03T14:29:53;7.00;57.70
18047;DHT22;9148;51.454;13.862;2023-04-03T14:32:21;7.20;57.90
18047;DHT22;9148;51.454;13.862;2023-04-03T14:34:49;6.80;57.50
18047;DHT22;9148;51.454;13.862;2023-04-03T14:37:19;7.50;57.80
18047;DHT22;9148;51.454;13.862;2023-04-03T14:39:47;7.30;57.30
18047;DHT22;9148;51.454;13.862;2023-04-03T14:42:19;6.70;57.00
18047;DHT22;9148;51.454;13.862;2023-04-03T14:44:46;6.60;57.00
18047;DHT22;9148;51.454;13.862;2023-04-03T14:47:15;7.30;57.10
18047;DHT22;9148;51.454;13.862;2023-04-03T14:49:52;6.70;57.10
18047;DHT22;9148;51.454;13.862;2023-04-03T14:52:25;6.60;57.50
18047;DHT22;9148;51.454;13.862;2023-04-03T14:54:54;6.70;57.70
18047;DHT22;9148;51.454;13.862;2023-04-03T14:57:23;7.00;58.10
18047;DHT22;9148;51.454;13.862;2023-04-03T14:59:50;6.80;57.70
18047;DHT22;9148;51.454;13.862;2023-04-03T15:02:31;6.80;57.60
18047;DHT22;9148;51.454;13.862;2023-04-03T15:04:59;6.80;57.80
18047;DHT22;9148;51.454;13.862;2023-04-03T15:07:27;7.00;57.90
18047;DHT22;9148;51.454;13.862;2023-04-03T15:09:54;6.70;57.90
18047;DHT22;9148;51.454;13.862;2023-04-03T15:12:22;6.60;57.80
18047;DHT22;9148;51.454;13.862;2023-04-03T15:14:49;6.70;57.50
18047;DHT22;9148;51.454;13.862;2023-04-03T15:17:18;6.60;56.90
18047;DHT22;9148;51.454;13.862;2023-04-03T15:19:45;7.10;57.10
18047;DHT22;9148;51.454;13.862;2023-04-03T15:22:16;6.50;57.00
18047;DHT22;9148;51.454;13.862;2023-04-03T15:24:43;6.70;57.30
18047;DHT22;9148;51.454;13.862;2023-04-03T15:27:10;6.50;57.30
18047;DHT22;9148;51.454;13.862;2023-04-03T15:29:38;7.10;57.70
18047;DHT22;9148;51.454;13.862;2023-04-03T15:32:05;6.40;57.30
18047;DHT22;9148;51.454;13.862;2023-04-03T15:34:31;6.50;57.60
18047;DHT22;9148;51.454;13.862;2023-04-03T15:36:57;6.30;57.30
18047;DHT22;9148;51.454;13.862;2023-04-03T15:39:24;6.30;57.20
18047;DHT22;9148;51.454;13.862;2023-04-03T15:41:50;6.20;57.40
18047;DHT22;9148;51.454;13.862;2023-04-03T15:44:17;6.20;57.60
18047;DHT22;9148;51.454;13.862;2023-04-03T15:46:44;6.10;58.00
18047;DHT22;9148;51.454;13.862;2023-04-03T15:49:11;6.10;58.20
18047;DHT22;9148;51.454;13.862;2023-04-03T15:51:37;6.40;58.60
18047;DHT22;9148;51.454;13.862;2023-04-03T15:54:03;6.10;58.50
18047;DHT22;9148;51.454;13.862;2023-04-03T15:56:29;6.10;58.80
18047;DHT22;9148;51.454;13.862;2023-04-03T15:58:54;6.80;59.20
18047;DHT22;9148;51.454;13.862;2023-04-03T16:01:20;6.00;59.00
18047;DHT22;9148;51.454;13.862;2023-04-03T16:03:46;6.00;59.20
18047;DHT22;9148;51.454;13.862;2023-04-03T16:06:14;6.60;59.80
18047;DHT22;9148;51.454;13.862;2023-04-03T16:08:40;5.80;59.40
18047;DHT22;9148;51.454;13.862;2023-04-03T16:11:06;5.70;59.30
18047;DHT22;9148;51.454;13.862;2023-04-03T16:13:32;5.50;59.50
18047;DHT22;9148;51.454;13.862;2023-04-03T16:15:59;5.40;59.70
18047;DHT22;9148;51.454;13.862;2023-04-03T16:18:26;5.30;60.00
18047;DHT22;9148;51.454;13.862;2023-04-03T16:20:51;5.10;60.30
18047;DHT22;9148;51.454;13.862;2023-04-03T16:23:17;5.10;60.40
18047;DHT22;9148;51.454;13.862;2023-04-03T16:25:43;5.10;60.50
18047;DHT22;9148;51.454;13.862;2023-04-03T16:28:16;5.00;60.70
18047;DHT22;9148;51.454;13.862;2023-04-03T16:30:44;5.10;61.10
18047;DHT22;9148;51.454;13.862;2023-04-03T16:33:11;5.00;61.10
18047;DHT22;9148;51.454;13.862;2023-04-03T16:35:37;5.00;61.10
18047;DHT22;9148;51.454;13.862;2023-04-03T16:38:03;4.90;61.20
18047;DHT22;9148;51.454;13.862;2023-04-03T16:40:29;4.80;61.60
18047;DHT22;9148;51.454;13.862;2023-04-03T16:42:55;5.00;62.30
18047;DHT22;9148;51.454;13.862;2023-04-03T16:45:21;4.90;62.50
18047;DHT22;9148;51.454;13.862;2023-04-03T16:47:46;5.00;62.80
18047;DHT22;9148;51.454;13.862;2023-04-03T16:50:12;4.90;62.80
18047;DHT22;9148;51.454;13.862;2023-04-03T16:52:38;4.90;62.90
18047;DHT22;9148;51.454;13.862;2023-04-03T16:55:04;4.90;63.20
18047;DHT22;9148;51.454;13.862;2023-04-03T16:57:30;4.90;63.20
18047;DHT22;9148;51.454;13.862;2023-04-03T16:59:56;4.90;63.30
18047;DHT22;9148;51.454;13.862;2023-04-03T17:02:22;4.80;63.00
18047;DHT22;9148;51.454;13.862;2023-04-03T17:04:50;4.80;63.40
18047;DHT22;9148;51.454;13.862;2023-04-03T17:07:21;4.70;63.60
18047;DHT22;9148;51.454;13.862;2023-04-03T17:09:48;4.70;63.80
18047;DHT22;9148;51.454;13.862;2023-04-03T17:12:14;4.70;63.90
18047;DHT22;9148;51.454;13.862;2023-04-03T17:14:40;4.70;63.90
18047;DHT22;9148;51.454;13.862;2023-04-03T17:17:06;4.70;64.00
18047;DHT22;9148;51.454;13.862;2023-04-03T17:19:34;4.60;63.90
18047;DHT22;9148;51.454;13.862;2023-04-03T17:22:00;4.70;64.00
18047;DHT22;9148;51.454;13.862;2023-04-03T17:24:27;4.60;64.10
18047;DHT22;9148;51.454;13.862;2023-04-03T17:26:53;4.60;64.30